Lapis Arrow — C6VH5 — position and weather

sailwx.info

Track history (hours):
 
Tides and Currents Weather Stations Pressure Air Temp Water Temp Dewpoint Dewpoint Depression Visibility Wind Speed Wind Dir Waves Ship Positions

Lapis Arrow

Last reported at 2017-Mar-18 12:33 UTC. Time now 2017-Mar-23 04:26 UTC.
Position N 37°46' E 023°38'.

Length 176 m; draft 7.3 m.

Type: Cargo ship. MMSI: 308800800.

Date/timePositionNaut miles runAvg speedWind from/ knotsBaromVisibWave heightAir tempDewpointWater temp
2017-Mar-18 12:33N 37°46' E 023°38'11 1.7
2017-Mar-18 06:23N 37°57' E 023°36'2 2.5
2017-Mar-18 05:32N 37°55' E 023°36'0 0.4
2017-Mar-18 04:33N 37°55' E 023°36'3 3.4
2017-Mar-18 03:33N 37°52' E 023°39'6 6.1
2017-Mar-18 02:32N 37°47' E 023°42'38312.7
2017-Mar-16 20:28N 37°22' E 015°40'28 6.5
2017-Mar-16 16:09N 37°30' E 015°06'0 0.1
2017-Mar-16 09:32N 37°29' E 015°06'5 4.9
2017-Mar-16 08:34N 37°30' E 015°12'1615.7
2017-Mar-16 07:33N 37°43' E 015°22'1919.1
2017-Mar-16 06:34N 38°01' E 015°32'1817.7
2017-Mar-16 05:33N 38°17' E 015°41'1716.9
2017-Mar-16 04:32N 38°34' E 015°33'356 7.5
2017-Mar-14 05:14N 42°42' E 009°57'1319.2
2017-Mar-14 04:33N 42°55' E 009°60'1919.2
2017-Mar-14 03:33N 43°13' E 010°06'1818.1
2017-Mar-14 02:34N 43°30' E 010°13'6 6.1
2017-Mar-14 01:32N 43°35' E 010°19'0 0.0
2017-Mar-14 00:28N 43°35' E 010°19'0 0.0
2017-Mar-13 23:29N 43°35' E 010°19'0 0.0
2017-Mar-13 22:28N 43°35' E 010°19'0 0.0
2017-Mar-13 21:33N 43°35' E 010°19'0 0.0
2017-Mar-13 20:32N 43°35' E 010°19'0 0.0
2017-Mar-13 19:31N 43°35' E 010°19'0 0.0
2017-Mar-13 18:33N 43°35' E 010°19'0 0.0
2017-Mar-13 17:32N 43°35' E 010°19'0 0.0
2017-Mar-13 16:32N 43°35' E 010°19'0 0.0
2017-Mar-13 15:32N 43°35' E 010°19'0 0.0
2017-Mar-13 14:32N 43°35' E 010°19'0 0.0
2017-Mar-13 13:33N 43°35' E 010°19'0 0.0
2017-Mar-13 12:28N 43°35' E 010°19'0 0.0
2017-Mar-13 11:29N 43°35' E 010°19'0 0.0
2017-Mar-13 10:25N 43°35' E 010°19'0 0.0
2017-Mar-13 09:31N 43°35' E 010°19'0 0.0
2017-Mar-13 08:32N 43°35' E 010°19'0 0.0
2017-Mar-13 07:30N 43°35' E 010°19'0 0.0
2017-Mar-13 06:32N 43°35' E 010°19'0 0.0
2017-Mar-13 05:31N 43°35' E 010°19'3 3.2
2017-Mar-13 04:33N 43°32' E 010°17'8 7.6
2017-Mar-13 03:34N 43°27' E 010°10'4 4.2
2017-Mar-13 02:33N 43°23' E 010°06'1515.0
2017-Mar-13 01:33N 43°18' E 009°47'1716.6
2017-Mar-13 00:34N 43°15' E 009°25'19417.0
2017-Mar-12 13:12N 43°19' E 004°59'6 0.5
2017-Mar-12 01:13N 43°24' E 004°54'810.2
2017-Mar-12 00:23N 43°17' E 005°00'11214.3
2017-Mar-11 16:32N 41°50' E 003°24'1515.4
2017-Mar-11 15:33N 41°39' E 003°11'1615.4
2017-Mar-11 14:30N 41°27' E 002°56'1515.3
2017-Mar-11 13:33N 41°17' E 002°42'1515.2
2017-Mar-11 12:33N 41°06' E 002°28'1515.0
2017-Mar-11 11:33N 40°55' E 002°15'1515.3
2017-Mar-11 10:33N 40°44' E 002°01'1515.1
2017-Mar-11 09:33N 40°33' E 001°47'1515.1
2017-Mar-11 08:33N 40°22' E 001°33'1515.1
2017-Mar-11 07:33N 40°11' E 001°20'1515.4
2017-Mar-11 06:33N 39°60' E 001°05'1515.2
2017-Mar-11 05:33N 39°49' E 000°52'5115.2
2017-Mar-11 02:12N 39°27' W 000°08'813.0
2017-Mar-11 01:34N 39°26' W 000°18'0 0.4
2017-Mar-11 00:32N 39°27' W 000°18'0 0.0
2017-Mar-10 22:31N 39°27' W 000°18'0 0.0
2017-Mar-10 20:04N 39°27' W 000°18'0 0.0
2017-Mar-10 19:17N 39°27' W 000°18'0 0.0
2017-Mar-10 14:28N 39°27' W 000°18'0 0.0
2017-Mar-10 10:17N 39°27' W 000°18'3912.6
2017-Mar-10 07:10N 38°58' E 000°17'5217.3
2017-Mar-10 04:11N 38°08' W 000°01'1519.6
2017-Mar-10 03:24N 37°56' W 000°12'1719.4
2017-Mar-10 02:33N 37°42' W 000°23'2319.5
2017-Mar-10 01:23N 37°25' W 000°43'22518.5
2017-Mar-09 13:14N 36°02' W 005°04'1421.0
2017-Mar-09 12:34N 35°59' W 005°21'10917.4
2017-Mar-09 06:18N 36°13' W 007°35'1318.0
2017-Mar-09 05:33N 36°16' W 007°51'7518.2
2017-Mar-09 01:27N 36°36' W 009°20'1718.6
2017-Mar-09 00:33N 36°49' W 009°34'1918.9
2017-Mar-08 23:34N 37°07' W 009°35'1919.3
2017-Mar-08 22:33N 37°26' W 009°27'1919.4
2017-Mar-08 21:34N 37°44' W 009°19'2019.7
2017-Mar-08 20:34N 38°03' W 009°10'2019.6
2017-Mar-08 19:33N 38°21' W 009°01'1212.2
2017-Mar-08 18:33N 38°31' W 008°52'0 0.0
2017-Mar-08 17:29N 38°31' W 008°52'0 0.0
2017-Mar-08 16:30N 38°31' W 008°52'0 0.0
2017-Mar-08 15:32N 38°31' W 008°52'0 0.0
2017-Mar-08 14:32N 38°31' W 008°52'0 0.0
2017-Mar-08 13:29N 38°31' W 008°52'  
Track history (hours):
 
Tides and Currents Weather Stations Pressure Air Temp Water Temp Dewpoint Dewpoint Depression Visibility Wind Speed Wind Dir Waves Ship Positions

Lapis Arrow

Last reported at 2017-Mar-18 12:33 UTC. Time now 2017-Mar-23 04:26 UTC.
Position N 37°46' E 023°38'.

Length 176 m; draft 7.3 m.

Type: Cargo ship. MMSI: 308800800.

Date/timePositionNaut miles runAvg speedWind from/ knotsBaromVisibWave heightAir tempDewpointWater temp
2017-Mar-18 12:33N 37°46' E 023°38'11 1.7
2017-Mar-18 06:23N 37°57' E 023°36'2 2.5
2017-Mar-18 05:32N 37°55' E 023°36'0 0.4
2017-Mar-18 04:33N 37°55' E 023°36'3 3.4
2017-Mar-18 03:33N 37°52' E 023°39'6 6.1
2017-Mar-18 02:32N 37°47' E 023°42'38312.7
2017-Mar-16 20:28N 37°22' E 015°40'28 6.5
2017-Mar-16 16:09N 37°30' E 015°06'0 0.1
2017-Mar-16 09:32N 37°29' E 015°06'5 4.9
2017-Mar-16 08:34N 37°30' E 015°12'1615.7
2017-Mar-16 07:33N 37°43' E 015°22'1919.1
2017-Mar-16 06:34N 38°01' E 015°32'1817.7
2017-Mar-16 05:33N 38°17' E 015°41'1716.9
2017-Mar-16 04:32N 38°34' E 015°33'356 7.5
2017-Mar-14 05:14N 42°42' E 009°57'1319.2
2017-Mar-14 04:33N 42°55' E 009°60'1919.2
2017-Mar-14 03:33N 43°13' E 010°06'1818.1
2017-Mar-14 02:34N 43°30' E 010°13'6 6.1
2017-Mar-14 01:32N 43°35' E 010°19'0 0.0
2017-Mar-14 00:28N 43°35' E 010°19'0 0.0
2017-Mar-13 23:29N 43°35' E 010°19'0 0.0
2017-Mar-13 22:28N 43°35' E 010°19'0 0.0
2017-Mar-13 21:33N 43°35' E 010°19'0 0.0
2017-Mar-13 20:32N 43°35' E 010°19'0 0.0
2017-Mar-13 19:31N 43°35' E 010°19'0 0.0
2017-Mar-13 18:33N 43°35' E 010°19'0 0.0
2017-Mar-13 17:32N 43°35' E 010°19'0 0.0
2017-Mar-13 16:32N 43°35' E 010°19'0 0.0
2017-Mar-13 15:32N 43°35' E 010°19'0 0.0
2017-Mar-13 14:32N 43°35' E 010°19'0 0.0
2017-Mar-13 13:33N 43°35' E 010°19'0 0.0
2017-Mar-13 12:28N 43°35' E 010°19'0 0.0
2017-Mar-13 11:29N 43°35' E 010°19'0 0.0
2017-Mar-13 10:25N 43°35' E 010°19'0 0.0
2017-Mar-13 09:31N 43°35' E 010°19'0 0.0
2017-Mar-13 08:32N 43°35' E 010°19'0 0.0
2017-Mar-13 07:30N 43°35' E 010°19'0 0.0
2017-Mar-13 06:32N 43°35' E 010°19'0 0.0
2017-Mar-13 05:31N 43°35' E 010°19'3 3.2
2017-Mar-13 04:33N 43°32' E 010°17'8 7.6
2017-Mar-13 03:34N 43°27' E 010°10'4 4.2
2017-Mar-13 02:33N 43°23' E 010°06'1515.0
2017-Mar-13 01:33N 43°18' E 009°47'1716.6
2017-Mar-13 00:34N 43°15' E 009°25'19417.0
2017-Mar-12 13:12N 43°19' E 004°59'6 0.5
2017-Mar-12 01:13N 43°24' E 004°54'810.2
2017-Mar-12 00:23N 43°17' E 005°00'11214.3
2017-Mar-11 16:32N 41°50' E 003°24'1515.4
2017-Mar-11 15:33N 41°39' E 003°11'1615.4
2017-Mar-11 14:30N 41°27' E 002°56'1515.3
2017-Mar-11 13:33N 41°17' E 002°42'1515.2
2017-Mar-11 12:33N 41°06' E 002°28'1515.0
2017-Mar-11 11:33N 40°55' E 002°15'1515.3
2017-Mar-11 10:33N 40°44' E 002°01'1515.1
2017-Mar-11 09:33N 40°33' E 001°47'1515.1
2017-Mar-11 08:33N 40°22' E 001°33'1515.1
2017-Mar-11 07:33N 40°11' E 001°20'1515.4
2017-Mar-11 06:33N 39°60' E 001°05'1515.2
2017-Mar-11 05:33N 39°49' E 000°52'5115.2
2017-Mar-11 02:12N 39°27' W 000°08'813.0
2017-Mar-11 01:34N 39°26' W 000°18'0 0.4
2017-Mar-11 00:32N 39°27' W 000°18'0 0.0
2017-Mar-10 22:31N 39°27' W 000°18'0 0.0
2017-Mar-10 20:04N 39°27' W 000°18'0 0.0
2017-Mar-10 19:17N 39°27' W 000°18'0 0.0
2017-Mar-10 14:28N 39°27' W 000°18'0 0.0
2017-Mar-10 10:17N 39°27' W 000°18'3912.6
2017-Mar-10 07:10N 38°58' E 000°17'5217.3
2017-Mar-10 04:11N 38°08' W 000°01'1519.6
2017-Mar-10 03:24N 37°56' W 000°12'1719.4
2017-Mar-10 02:33N 37°42' W 000°23'2319.5
2017-Mar-10 01:23N 37°25' W 000°43'22518.5
2017-Mar-09 13:14N 36°02' W 005°04'1421.0
2017-Mar-09 12:34N 35°59' W 005°21'10917.4
2017-Mar-09 06:18N 36°13' W 007°35'1318.0
2017-Mar-09 05:33N 36°16' W 007°51'7518.2
2017-Mar-09 01:27N 36°36' W 009°20'1718.6
2017-Mar-09 00:33N 36°49' W 009°34'1918.9
2017-Mar-08 23:34N 37°07' W 009°35'1919.3
2017-Mar-08 22:33N 37°26' W 009°27'1919.4
2017-Mar-08 21:34N 37°44' W 009°19'2019.7
2017-Mar-08 20:34N 38°03' W 009°10'2019.6
2017-Mar-08 19:33N 38°21' W 009°01'1212.2
2017-Mar-08 18:33N 38°31' W 008°52'0 0.0
2017-Mar-08 17:29N 38°31' W 008°52'0 0.0
2017-Mar-08 16:30N 38°31' W 008°52'0 0.0
2017-Mar-08 15:32N 38°31' W 008°52'0 0.0
2017-Mar-08 14:32N 38°31' W 008°52'0 0.0
2017-Mar-08 13:29N 38°31' W 008°52'  

Dump ship's entire track history